sensor_id;sensor_type;location;lat;lon;timestamp;P1;P2;P0
71858;PMS5003;59713;50.866;4.324;2023-04-06T00:00:42;31;25;
71858;PMS5003;59713;50.866;4.324;2023-04-06T00:01:42;31;25;
71858;PMS5003;59713;50.866;4.324;2023-04-06T00:02:42;31;25;
71858;PMS5003;59713;50.866;4.324;2023-04-06T00:03:42;21;19;
71858;PMS5003;59713;50.866;4.324;2023-04-06T00:03:42;21;19;
71858;PMS5003;59713;50.866;4.324;2023-04-06T00:04:42;21;19;
71858;PMS5003;59713;50.866;4.324;2023-04-06T00:05:42;21;19;
71858;PMS5003;59713;50.866;4.324;2023-04-06T00:06:42;30;24;
71858;PMS5003;59713;50.866;4.324;2023-04-06T00:07:42;30;24;
71858;PMS5003;59713;50.866;4.324;2023-04-06T00:08:43;30;24;
71858;PMS5003;59713;50.866;4.324;2023-04-06T00:09:42;32;27;
71858;PMS5003;59713;50.866;4.324;2023-04-06T00:10:42;32;27;
71858;PMS5003;59713;50.866;4.324;2023-04-06T00:11:42;32;27;
71858;PMS5003;59713;50.866;4.324;2023-04-06T00:12:42;43;30;
71858;PMS5003;59713;50.866;4.324;2023-04-06T00:13:42;43;30;
71858;PMS5003;59713;50.866;4.324;2023-04-06T00:13:42;43;30;
71858;PMS5003;59713;50.866;4.324;2023-04-06T00:14:42;43;30;
71858;PMS5003;59713;50.866;4.324;2023-04-06T00:15:42;32;28;
71858;PMS5003;59713;50.866;4.324;2023-04-06T00:16:42;32;28;
71858;PMS5003;59713;50.866;4.324;2023-04-06T00:17:42;32;28;
71858;PMS5003;59713;50.866;4.324;2023-04-06T00:18:42;29;27;
71858;PMS5003;59713;50.866;4.324;2023-04-06T00:19:42;29;27;
71858;PMS5003;59713;50.866;4.324;2023-04-06T00:20:42;29;27;
71858;PMS5003;59713;50.866;4.324;2023-04-06T00:21:42;26;22;
71858;PMS5003;59713;50.866;4.324;2023-04-06T00:22:42;26;22;
71858;PMS5003;59713;50.866;4.324;2023-04-06T00:22:42;26;22;
71858;PMS5003;59713;50.866;4.324;2023-04-06T00:23:42;26;22;
71858;PMS5003;59713;50.866;4.324;2023-04-06T00:24:42;29;27;
71858;PMS5003;59713;50.866;4.324;2023-04-06T00:25:42;29;27;
71858;PMS5003;59713;50.866;4.324;2023-04-06T00:26:42;29;27;
71858;PMS5003;59713;50.866;4.324;2023-04-06T00:27:42;32;30;
71858;PMS5003;59713;50.866;4.324;2023-04-06T00:28:42;32;30;
71858;PMS5003;59713;50.866;4.324;2023-04-06T00:29:43;32;30;
71858;PMS5003;59713;50.866;4.324;2023-04-06T00:30:42;33;24;
71858;PMS5003;59713;50.866;4.324;2023-04-06T00:31:42;33;24;
71858;PMS5003;59713;50.866;4.324;2023-04-06T00:31:42;33;24;
71858;PMS5003;59713;50.866;4.324;2023-04-06T00:32:42;33;24;
71858;PMS5003;59713;50.866;4.324;2023-04-06T00:33:42;33;25;
71858;PMS5003;59713;50.866;4.324;2023-04-06T00:34:42;33;25;
71858;PMS5003;59713;50.866;4.324;2023-04-06T00:35:42;33;25;
71858;PMS5003;59713;50.866;4.324;2023-04-06T00:36:42;26;25;
71858;PMS5003;59713;50.866;4.324;2023-04-06T00:37:42;26;25;
71858;PMS5003;59713;50.866;4.324;2023-04-06T00:38:42;26;25;
71858;PMS5003;59713;50.866;4.324;2023-04-06T00:39:42;34;31;
71858;PMS5003;59713;50.866;4.324;2023-04-06T00:40:42;34;31;
71858;PMS5003;59713;50.866;4.324;2023-04-06T00:40:42;34;31;
71858;PMS5003;59713;50.866;4.324;2023-04-06T00:41:42;34;31;
71858;PMS5003;59713;50.866;4.324;2023-04-06T00:42:42;27;27;
71858;PMS5003;59713;50.866;4.324;2023-04-06T00:43:42;27;27;
71858;PMS5003;59713;50.866;4.324;2023-04-06T00:44:42;27;27;
71858;PMS5003;59713;50.866;4.324;2023-04-06T00:45:42;31;27;
71858;PMS5003;59713;50.866;4.324;2023-04-06T00:46:42;31;27;
71858;PMS5003;59713;50.866;4.324;2023-04-06T00:47:42;31;27;
71858;PMS5003;59713;50.866;4.324;2023-04-06T00:48:42;32;29;
71858;PMS5003;59713;50.866;4.324;2023-04-06T00:49:42;32;29;
71858;PMS5003;59713;50.866;4.324;2023-04-06T00:49:42;32;29;
71858;PMS5003;59713;50.866;4.324;2023-04-06T00:50:42;32;29;
71858;PMS5003;59713;50.866;4.324;2023-04-06T00:51:42;28;24;
71858;PMS5003;59713;50.866;4.324;2023-04-06T00:52:42;28;24;
71858;PMS5003;59713;50.866;4.324;2023-04-06T00:53:42;28;24;
71858;PMS5003;59713;50.866;4.324;2023-04-06T00:54:42;38;30;
71858;PMS5003;59713;50.866;4.324;2023-04-06T00:55:42;38;30;
71858;PMS5003;59713;50.866;4.324;2023-04-06T00:56:43;38;30;
71858;PMS5003;59713;50.866;4.324;2023-04-06T00:57:42;31;28;
71858;PMS5003;59713;50.866;4.324;2023-04-06T00:58:42;31;28;
71858;PMS5003;59713;50.866;4.324;2023-04-06T00:58:42;31;28;
71858;PMS5003;59713;50.866;4.324;2023-04-06T00:59:42;31;28;
71858;PMS5003;59713;50.866;4.324;2023-04-06T01:00:42;26;21;
71858;PMS5003;59713;50.866;4.324;2023-04-06T01:01:42;26;21;
71858;PMS5003;59713;50.866;4.324;2023-04-06T01:02:42;26;21;
71858;PMS5003;59713;50.866;4.324;2023-04-06T01:03:42;34;27;
71858;PMS5003;59713;50.866;4.324;2023-04-06T01:04:42;34;27;
71858;PMS5003;59713;50.866;4.324;2023-04-06T01:05:42;34;27;
71858;PMS5003;59713;50.866;4.324;2023-04-06T01:06:42;32;26;
71858;PMS5003;59713;50.866;4.324;2023-04-06T01:07:42;32;26;
71858;PMS5003;59713;50.866;4.324;2023-04-06T01:07:42;32;26;
71858;PMS5003;59713;50.866;4.324;2023-04-06T01:08:42;32;26;
71858;PMS5003;59713;50.866;4.324;2023-04-06T01:09:42;34;30;
71858;PMS5003;59713;50.866;4.324;2023-04-06T01:10:42;34;30;
71858;PMS5003;59713;50.866;4.324;2023-04-06T01:11:42;34;30;
71858;PMS5003;59713;50.866;4.324;2023-04-06T01:12:42;34;28;
71858;PMS5003;59713;50.866;4.324;2023-04-06T01:13:42;34;28;
71858;PMS5003;59713;50.866;4.324;2023-04-06T01:14:42;34;28;
71858;PMS5003;59713;50.866;4.324;2023-04-06T01:15:42;39;33;
71858;PMS5003;59713;50.866;4.324;2023-04-06T01:16:42;39;33;
71858;PMS5003;59713;50.866;4.324;2023-04-06T01:16:42;39;33;
71858;PMS5003;59713;50.866;4.324;2023-04-06T01:17:42;39;33;
71858;PMS5003;59713;50.866;4.324;2023-04-06T01:18:42;35;30;
71858;PMS5003;59713;50.866;4.324;2023-04-06T01:19:42;35;30;
71858;PMS5003;59713;50.866;4.324;2023-04-06T01:20:43;35;30;
71858;PMS5003;59713;50.866;4.324;2023-04-06T01:21:42;33;30;
71858;PMS5003;59713;50.866;4.324;2023-04-06T01:22:42;33;30;
71858;PMS5003;59713;50.866;4.324;2023-04-06T01:23:43;33;30;
71858;PMS5003;59713;50.866;4.324;2023-04-06T01:24:42;37;29;
71858;PMS5003;59713;50.866;4.324;2023-04-06T01:25:42;37;29;
71858;PMS5003;59713;50.866;4.324;2023-04-06T01:25:42;37;29;
71858;PMS5003;59713;50.866;4.324;2023-04-06T01:26:42;37;29;
71858;PMS5003;59713;50.866;4.324;2023-04-06T01:27:44;35;30;
71858;PMS5003;59713;50.866;4.324;2023-04-06T01:28:42;35;30;
71858;PMS5003;59713;50.866;4.324;2023-04-06T01:29:42;35;30;
71858;PMS5003;59713;50.866;4.324;2023-04-06T01:30:42;31;25;
71858;PMS5003;59713;50.866;4.324;2023-04-06T01:31:42;31;25;
71858;PMS5003;59713;50.866;4.324;2023-04-06T01:32:42;31;25;
71858;PMS5003;59713;50.866;4.324;2023-04-06T01:33:42;29;26;
71858;PMS5003;59713;50.866;4.324;2023-04-06T01:34:42;29;26;
71858;PMS5003;59713;50.866;4.324;2023-04-06T01:34:42;29;26;
71858;PMS5003;59713;50.866;4.324;2023-04-06T01:35:42;29;26;
71858;PMS5003;59713;50.866;4.324;2023-04-06T01:36:42;36;29;
71858;PMS5003;59713;50.866;4.324;2023-04-06T01:37:42;36;29;
71858;PMS5003;59713;50.866;4.324;2023-04-06T01:38:42;36;29;
71858;PMS5003;59713;50.866;4.324;2023-04-06T01:39:42;33;29;
71858;PMS5003;59713;50.866;4.324;2023-04-06T01:40:42;33;29;
71858;PMS5003;59713;50.866;4.324;2023-04-06T01:41:42;33;29;
71858;PMS5003;59713;50.866;4.324;2023-04-06T01:42:42;32;30;
71858;PMS5003;59713;50.866;4.324;2023-04-06T01:43:42;32;30;
71858;PMS5003;59713;50.866;4.324;2023-04-06T01:43:42;32;30;
71858;PMS5003;59713;50.866;4.324;2023-04-06T01:44:42;32;30;
71858;PMS5003;59713;50.866;4.324;2023-04-06T01:45:42;23;21;
71858;PMS5003;59713;50.866;4.324;2023-04-06T01:46:42;23;21;
71858;PMS5003;59713;50.866;4.324;2023-04-06T01:47:42;23;21;
71858;PMS5003;59713;50.866;4.324;2023-04-06T01:48:42;40;33;
71858;PMS5003;59713;50.866;4.324;2023-04-06T01:49:42;40;33;
71858;PMS5003;59713;50.866;4.324;2023-04-06T01:50:42;40;33;
71858;PMS5003;59713;50.866;4.324;2023-04-06T01:51:42;37;30;
71858;PMS5003;59713;50.866;4.324;2023-04-06T01:52:42;37;30;
71858;PMS5003;59713;50.866;4.324;2023-04-06T01:52:42;37;30;
71858;PMS5003;59713;50.866;4.324;2023-04-06T01:53:42;37;30;
71858;PMS5003;59713;50.866;4.324;2023-04-06T01:54:42;24;23;
71858;PMS5003;59713;50.866;4.324;2023-04-06T01:55:42;24;23;
71858;PMS5003;59713;50.866;4.324;2023-04-06T01:56:42;24;23;
71858;PMS5003;59713;50.866;4.324;2023-04-06T01:57:42;36;30;
71858;PMS5003;59713;50.866;4.324;2023-04-06T01:58:42;36;30;
71858;PMS5003;59713;50.866;4.324;2023-04-06T01:59:46;36;30;
71858;PMS5003;59713;50.866;4.324;2023-04-06T02:00:42;36;24;
71858;PMS5003;59713;50.866;4.324;2023-04-06T02:01:42;36;24;
71858;PMS5003;59713;50.866;4.324;2023-04-06T02:01:42;36;24;
71858;PMS5003;59713;50.866;4.324;2023-04-06T02:02:42;36;24;
71858;PMS5003;59713;50.866;4.324;2023-04-06T02:03:42;36;30;
71858;PMS5003;59713;50.866;4.324;2023-04-06T02:04:42;36;30;
71858;PMS5003;59713;50.866;4.324;2023-04-06T02:05:42;36;30;
71858;PMS5003;59713;50.866;4.324;2023-04-06T02:06:42;37;29;
71858;PMS5003;59713;50.866;4.324;2023-04-06T02:07:42;37;29;
71858;PMS5003;59713;50.866;4.324;2023-04-06T02:08:42;37;29;
71858;PMS5003;59713;50.866;4.324;2023-04-06T02:09:42;35;28;
71858;PMS5003;59713;50.866;4.324;2023-04-06T02:10:42;35;28;
71858;PMS5003;59713;50.866;4.324;2023-04-06T02:11:42;35;28;
71858;PMS5003;59713;50.866;4.324;2023-04-06T02:11:42;35;28;
71858;PMS5003;59713;50.866;4.324;2023-04-06T02:12:42;30;26;
71858;PMS5003;59713;50.866;4.324;2023-04-06T02:13:42;30;26;
71858;PMS5003;59713;50.866;4.324;2023-04-06T02:14:42;30;26;
71858;PMS5003;59713;50.866;4.324;2023-04-06T02:15:42;40;30;
71858;PMS5003;59713;50.866;4.324;2023-04-06T02:16:42;40;30;
71858;PMS5003;59713;50.866;4.324;2023-04-06T02:17:42;40;30;
71858;PMS5003;59713;50.866;4.324;2023-04-06T02:18:42;23;22;
71858;PMS5003;59713;50.866;4.324;2023-04-06T02:19:42;23;22;
71858;PMS5003;59713;50.866;4.324;2023-04-06T02:20:42;23;22;
71858;PMS5003;59713;50.866;4.324;2023-04-06T02:20:42;23;22;
71858;PMS5003;59713;50.866;4.324;2023-04-06T02:21:42;34;30;
71858;PMS5003;59713;50.866;4.324;2023-04-06T02:22:42;34;30;
71858;PMS5003;59713;50.866;4.324;2023-04-06T02:23:42;34;30;
71858;PMS5003;59713;50.866;4.324;2023-04-06T02:24:42;29;28;
71858;PMS5003;59713;50.866;4.324;2023-04-06T02:25:42;29;28;
71858;PMS5003;59713;50.866;4.324;2023-04-06T02:26:47;29;28;
71858;PMS5003;59713;50.866;4.324;2023-04-06T02:27:42;35;31;
71858;PMS5003;59713;50.866;4.324;2023-04-06T02:28:42;35;31;
71858;PMS5003;59713;50.866;4.324;2023-04-06T02:29:42;35;31;
71858;PMS5003;59713;50.866;4.324;2023-04-06T02:30:42;31;29;
71858;PMS5003;59713;50.866;4.324;2023-04-06T02:31:42;31;29;
71858;PMS5003;59713;50.866;4.324;2023-04-06T02:32:46;31;29;
71858;PMS5003;59713;50.866;4.324;2023-04-06T02:33:42;40;31;
71858;PMS5003;59713;50.866;4.324;2023-04-06T02:34:42;40;31;
71858;PMS5003;59713;50.866;4.324;2023-04-06T02:35:43;40;31;
71858;PMS5003;59713;50.866;4.324;2023-04-06T02:36:42;35;29;
71858;PMS5003;59713;50.866;4.324;2023-04-06T02:37:42;35;29;
71858;PMS5003;59713;50.866;4.324;2023-04-06T02:38:42;35;29;
71858;PMS5003;59713;50.866;4.324;2023-04-06T02:39:42;29;25;
71858;PMS5003;59713;50.866;4.324;2023-04-06T02:40:42;29;25;
71858;PMS5003;59713;50.866;4.324;2023-04-06T02:40:42;29;25;
71858;PMS5003;59713;50.866;4.324;2023-04-06T02:41:42;29;25;
71858;PMS5003;59713;50.866;4.324;2023-04-06T02:42:42;30;30;
71858;PMS5003;59713;50.866;4.324;2023-04-06T02:43:42;30;30;
71858;PMS5003;59713;50.866;4.324;2023-04-06T02:44:42;30;30;
71858;PMS5003;59713;50.866;4.324;2023-04-06T02:45:42;30;26;
71858;PMS5003;59713;50.866;4.324;2023-04-06T02:46:42;30;26;
71858;PMS5003;59713;50.866;4.324;2023-04-06T02:47:42;30;26;
71858;PMS5003;59713;50.866;4.324;2023-04-06T02:48:42;26;23;
71858;PMS5003;59713;50.866;4.324;2023-04-06T02:49:42;26;23;
71858;PMS5003;59713;50.866;4.324;2023-04-06T02:49:42;26;23;
71858;PMS5003;59713;50.866;4.324;2023-04-06T02:50:42;26;23;
71858;PMS5003;59713;50.866;4.324;2023-04-06T02:51:42;32;29;
71858;PMS5003;59713;50.866;4.324;2023-04-06T02:52:42;32;29;
71858;PMS5003;59713;50.866;4.324;2023-04-06T02:53:42;32;29;
71858;PMS5003;59713;50.866;4.324;2023-04-06T02:54:42;29;26;
71858;PMS5003;59713;50.866;4.324;2023-04-06T02:55:42;29;26;
71858;PMS5003;59713;50.866;4.324;2023-04-06T02:56:42;29;26;
71858;PMS5003;59713;50.866;4.324;2023-04-06T02:57:42;33;29;
71858;PMS5003;59713;50.866;4.324;2023-04-06T02:58:42;33;29;
71858;PMS5003;59713;50.866;4.324;2023-04-06T02:58:42;33;29;
71858;PMS5003;59713;50.866;4.324;2023-04-06T02:59:42;33;29;
71858;PMS5003;59713;50.866;4.324;2023-04-06T03:00:42;36;28;
71858;PMS5003;59713;50.866;4.324;2023-04-06T03:01:42;36;28;
71858;PMS5003;59713;50.866;4.324;2023-04-06T03:02:42;36;28;
71858;PMS5003;59713;50.866;4.324;2023-04-06T03:03:42;32;29;
71858;PMS5003;59713;50.866;4.324;2023-04-06T03:04:42;32;29;
71858;PMS5003;59713;50.866;4.324;2023-04-06T03:05:42;32;29;
71858;PMS5003;59713;50.866;4.324;2023-04-06T03:06:42;37;29;
71858;PMS5003;59713;50.866;4.324;2023-04-06T03:07:42;37;29;
71858;PMS5003;59713;50.866;4.324;2023-04-06T03:07:42;37;29;
71858;PMS5003;59713;50.866;4.324;2023-04-06T03:08:42;37;29;
71858;PMS5003;59713;50.866;4.324;2023-04-06T03:09:42;35;29;
71858;PMS5003;59713;50.866;4.324;2023-04-06T03:10:42;35;29;
71858;PMS5003;59713;50.866;4.324;2023-04-06T03:11:43;35;29;
71858;PMS5003;59713;50.866;4.324;2023-04-06T03:12:42;15;15;
71858;PMS5003;59713;50.866;4.324;2023-04-06T03:13:42;15;15;
71858;PMS5003;59713;50.866;4.324;2023-04-06T03:14:42;15;15;
71858;PMS5003;59713;50.866;4.324;2023-04-06T03:15:43;38;31;
71858;PMS5003;59713;50.866;4.324;2023-04-06T03:16:42;38;31;
71858;PMS5003;59713;50.866;4.324;2023-04-06T03:16:42;38;31;
71858;PMS5003;59713;50.866;4.324;2023-04-06T03:17:42;38;31;
71858;PMS5003;59713;50.866;4.324;2023-04-06T03:18:42;33;27;
71858;PMS5003;59713;50.866;4.324;2023-04-06T03:19:42;33;27;
71858;PMS5003;59713;50.866;4.324;2023-04-06T03:20:42;33;27;
71858;PMS5003;59713;50.866;4.324;2023-04-06T03:21:42;36;29;
71858;PMS5003;59713;50.866;4.324;2023-04-06T03:22:42;36;29;
71858;PMS5003;59713;50.866;4.324;2023-04-06T03:23:42;36;29;
71858;PMS5003;59713;50.866;4.324;2023-04-06T03:24:42;22;20;
71858;PMS5003;59713;50.866;4.324;2023-04-06T03:25:42;22;20;
71858;PMS5003;59713;50.866;4.324;2023-04-06T03:26:42;22;20;
71858;PMS5003;59713;50.866;4.324;2023-04-06T03:26:42;22;20;
71858;PMS5003;59713;50.866;4.324;2023-04-06T03:27:42;33;25;
71858;PMS5003;59713;50.866;4.324;2023-04-06T03:28:42;33;25;
71858;PMS5003;59713;50.866;4.324;2023-04-06T03:29:43;33;25;
71858;PMS5003;59713;50.866;4.324;2023-04-06T03:30:42;32;27;
71858;PMS5003;59713;50.866;4.324;2023-04-06T03:31:42;32;27;
71858;PMS5003;59713;50.866;4.324;2023-04-06T03:32:42;32;27;
71858;PMS5003;59713;50.866;4.324;2023-04-06T03:33:42;34;30;
71858;PMS5003;59713;50.866;4.324;2023-04-06T03:34:42;34;30;
71858;PMS5003;59713;50.866;4.324;2023-04-06T03:35:42;34;30;
71858;PMS5003;59713;50.866;4.324;2023-04-06T03:35:42;34;30;
71858;PMS5003;59713;50.866;4.324;2023-04-06T03:36:42;28;26;
71858;PMS5003;59713;50.866;4.324;2023-04-06T03:37:42;28;26;
71858;PMS5003;59713;50.866;4.324;2023-04-06T03:38:42;28;26;
71858;PMS5003;59713;50.866;4.324;2023-04-06T03:39:42;31;28;
71858;PMS5003;59713;50.866;4.324;2023-04-06T03:40:42;31;28;
71858;PMS5003;59713;50.866;4.324;2023-04-06T03:41:42;31;28;
71858;PMS5003;59713;50.866;4.324;2023-04-06T03:42:42;32;27;
71858;PMS5003;59713;50.866;4.324;2023-04-06T03:43:42;32;27;
71858;PMS5003;59713;50.866;4.324;2023-04-06T03:44:42;32;27;
71858;PMS5003;59713;50.866;4.324;2023-04-06T03:44:42;32;27;
71858;PMS5003;59713;50.866;4.324;2023-04-06T03:45:42;37;29;
71858;PMS5003;59713;50.866;4.324;2023-04-06T03:46:42;37;29;
71858;PMS5003;59713;50.866;4.324;2023-04-06T03:47:43;37;29;
71858;PMS5003;59713;50.866;4.324;2023-04-06T03:48:42;27;27;
71858;PMS5003;59713;50.866;4.324;2023-04-06T03:49:42;27;27;
71858;PMS5003;59713;50.866;4.324;2023-04-06T03:50:42;27;27;
71858;PMS5003;59713;50.866;4.324;2023-04-06T03:51:42;29;29;
71858;PMS5003;59713;50.866;4.324;2023-04-06T03:52:43;29;29;
71858;PMS5003;59713;50.866;4.324;2023-04-06T03:53:42;29;29;
71858;PMS5003;59713;50.866;4.324;2023-04-06T03:53:42;29;29;
71858;PMS5003;59713;50.866;4.324;2023-04-06T03:54:42;39;30;
71858;PMS5003;59713;50.866;4.324;2023-04-06T03:55:42;39;30;
71858;PMS5003;59713;50.866;4.324;2023-04-06T03:56:42;39;30;
71858;PMS5003;59713;50.866;4.324;2023-04-06T03:57:42;17;17;
71858;PMS5003;59713;50.866;4.324;2023-04-06T03:58:42;17;17;
71858;PMS5003;59713;50.866;4.324;2023-04-06T03:59:42;17;17;
71858;PMS5003;59713;50.866;4.324;2023-04-06T04:00:42;28;27;
71858;PMS5003;59713;50.866;4.324;2023-04-06T04:01:42;28;27;
71858;PMS5003;59713;50.866;4.324;2023-04-06T04:02:42;28;27;
71858;PMS5003;59713;50.866;4.324;2023-04-06T04:03:42;30;29;
71858;PMS5003;59713;50.866;4.324;2023-04-06T04:03:42;30;29;
71858;PMS5003;59713;50.866;4.324;2023-04-06T04:04:42;30;29;
71858;PMS5003;59713;50.866;4.324;2023-04-06T04:05:42;30;29;
71858;PMS5003;59713;50.866;4.324;2023-04-06T04:06:42;32;27;
71858;PMS5003;59713;50.866;4.324;2023-04-06T04:07:42;32;27;
71858;PMS5003;59713;50.866;4.324;2023-04-06T04:08:42;32;27;
71858;PMS5003;59713;50.866;4.324;2023-04-06T04:09:42;33;30;
71858;PMS5003;59713;50.866;4.324;2023-04-06T04:10:42;33;30;
71858;PMS5003;59713;50.866;4.324;2023-04-06T04:11:42;33;30;
71858;PMS5003;59713;50.866;4.324;2023-04-06T04:12:42;32;28;
71858;PMS5003;59713;50.866;4.324;2023-04-06T04:12:42;32;28;
71858;PMS5003;59713;50.866;4.324;2023-04-06T04:13:42;32;28;
71858;PMS5003;59713;50.866;4.324;2023-04-06T04:14:42;32;28;
71858;PMS5003;59713;50.866;4.324;2023-04-06T04:15:42;30;26;
71858;PMS5003;59713;50.866;4.324;2023-04-06T04:16:42;30;26;
71858;PMS5003;59713;50.866;4.324;2023-04-06T04:17:43;30;26;
71858;PMS5003;59713;50.866;4.324;2023-04-06T04:18:42;34;27;
71858;PMS5003;59713;50.866;4.324;2023-04-06T04:19:42;34;27;
71858;PMS5003;59713;50.866;4.324;2023-04-06T04:20:42;34;27;
71858;PMS5003;59713;50.866;4.324;2023-04-06T04:21:42;28;22;
71858;PMS5003;59713;50.866;4.324;2023-04-06T04:21:42;28;22;
71858;PMS5003;59713;50.866;4.324;2023-04-06T04:22:42;28;22;
71858;PMS5003;59713;50.866;4.324;2023-04-06T04:23:42;28;22;
71858;PMS5003;59713;50.866;4.324;2023-04-06T04:24:42;30;27;
71858;PMS5003;59713;50.866;4.324;2023-04-06T04:25:43;30;27;
71858;PMS5003;59713;50.866;4.324;2023-04-06T04:26:42;30;27;
71858;PMS5003;59713;50.866;4.324;2023-04-06T04:27:42;32;30;
71858;PMS5003;59713;50.866;4.324;2023-04-06T04:28:42;32;30;
71858;PMS5003;59713;50.866;4.324;2023-04-06T04:29:42;32;30;
71858;PMS5003;59713;50.866;4.324;2023-04-06T04:30:42;33;29;
71858;PMS5003;59713;50.866;4.324;2023-04-06T04:30:42;33;29;
71858;PMS5003;59713;50.866;4.324;2023-04-06T04:31:42;33;29;
71858;PMS5003;59713;50.866;4.324;2023-04-06T04:32:42;33;29;
71858;PMS5003;59713;50.866;4.324;2023-04-06T04:33:42;34;27;
71858;PMS5003;59713;50.866;4.324;2023-04-06T04:34:42;34;27;
71858;PMS5003;59713;50.866;4.324;2023-04-06T04:35:42;34;27;
71858;PMS5003;59713;50.866;4.324;2023-04-06T04:36:42;28;27;
71858;PMS5003;59713;50.866;4.324;2023-04-06T04:37:42;28;27;
71858;PMS5003;59713;50.866;4.324;2023-04-06T04:38:42;28;27;
71858;PMS5003;59713;50.866;4.324;2023-04-06T04:39:42;33;30;
71858;PMS5003;59713;50.866;4.324;2023-04-06T04:40:42;33;30;
71858;PMS5003;59713;50.866;4.324;2023-04-06T04:40:42;33;30;
71858;PMS5003;59713;50.866;4.324;2023-04-06T04:41:42;33;30;
71858;PMS5003;59713;50.866;4.324;2023-04-06T04:42:42;30;25;
71858;PMS5003;59713;50.866;4.324;2023-04-06T04:43:42;30;25;
71858;PMS5003;59713;50.866;4.324;2023-04-06T04:44:42;30;25;
71858;PMS5003;59713;50.866;4.324;2023-04-06T04:45:42;37;30;
71858;PMS5003;59713;50.866;4.324;2023-04-06T04:46:42;37;30;
71858;PMS5003;59713;50.866;4.324;2023-04-06T04:47:42;37;30;
71858;PMS5003;59713;50.866;4.324;2023-04-06T04:48:42;36;32;
71858;PMS5003;59713;50.866;4.324;2023-04-06T04:49:42;36;32;
71858;PMS5003;59713;50.866;4.324;2023-04-06T04:49:42;36;32;
71858;PMS5003;59713;50.866;4.324;2023-04-06T04:50:42;36;32;
71858;PMS5003;59713;50.866;4.324;2023-04-06T04:51:42;36;32;
71858;PMS5003;59713;50.866;4.324;2023-04-06T04:52:42;36;32;
71858;PMS5003;59713;50.866;4.324;2023-04-06T04:53:42;36;32;
71858;PMS5003;59713;50.866;4.324;2023-04-06T04:54:42;36;29;
71858;PMS5003;59713;50.866;4.324;2023-04-06T04:55:42;36;29;
71858;PMS5003;59713;50.866;4.324;2023-04-06T04:56:42;36;29;
71858;PMS5003;59713;50.866;4.324;2023-04-06T04:57:42;33;31;
71858;PMS5003;59713;50.866;4.324;2023-04-06T04:58:42;33;31;
71858;PMS5003;59713;50.866;4.324;2023-04-06T04:58:42;33;31;
71858;PMS5003;59713;50.866;4.324;2023-04-06T04:59:42;33;31;
71858;PMS5003;59713;50.866;4.324;2023-04-06T05:00:42;30;28;
71858;PMS5003;59713;50.866;4.324;2023-04-06T05:01:42;30;28;
71858;PMS5003;59713;50.866;4.324;2023-04-06T05:02:42;30;28;
71858;PMS5003;59713;50.866;4.324;2023-04-06T05:03:42;33;30;
71858;PMS5003;59713;50.866;4.324;2023-04-06T05:04:42;33;30;
71858;PMS5003;59713;50.866;4.324;2023-04-06T05:05:42;33;30;
71858;PMS5003;59713;50.866;4.324;2023-04-06T05:06:42;37;32;
71858;PMS5003;59713;50.866;4.324;2023-04-06T05:07:42;37;32;
71858;PMS5003;59713;50.866;4.324;2023-04-06T05:07:42;37;32;
71858;PMS5003;59713;50.866;4.324;2023-04-06T05:08:42;37;32;
71858;PMS5003;59713;50.866;4.324;2023-04-06T05:09:42;37;30;
71858;PMS5003;59713;50.866;4.324;2023-04-06T05:10:42;37;30;
71858;PMS5003;59713;50.866;4.324;2023-04-06T05:11:42;37;30;
71858;PMS5003;59713;50.866;4.324;2023-04-06T05:12:42;37;33;
71858;PMS5003;59713;50.866;4.324;2023-04-06T05:13:42;37;33;
71858;PMS5003;59713;50.866;4.324;2023-04-06T05:14:42;37;33;
71858;PMS5003;59713;50.866;4.324;2023-04-06T05:15:44;38;31;
71858;PMS5003;59713;50.866;4.324;2023-04-06T05:16:42;38;31;
71858;PMS5003;59713;50.866;4.324;2023-04-06T05:17:42;38;31;
71858;PMS5003;59713;50.866;4.324;2023-04-06T05:17:42;38;31;
71858;PMS5003;59713;50.866;4.324;2023-04-06T05:18:42;40;33;
71858;PMS5003;59713;50.866;4.324;2023-04-06T05:19:42;40;33;
71858;PMS5003;59713;50.866;4.324;2023-04-06T05:20:42;40;33;
71858;PMS5003;59713;50.866;4.324;2023-04-06T05:23:42;39;32;
71858;PMS5003;59713;50.866;4.324;2023-04-06T05:24:42;35;29;
71858;PMS5003;59713;50.866;4.324;2023-04-06T05:25:42;35;29;
71858;PMS5003;59713;50.866;4.324;2023-04-06T05:26:42;35;29;
71858;PMS5003;59713;50.866;4.324;2023-04-06T05:26:42;35;29;
71858;PMS5003;59713;50.866;4.324;2023-04-06T05:27:42;23;23;
71858;PMS5003;59713;50.866;4.324;2023-04-06T05:28:42;23;23;
71858;PMS5003;59713;50.866;4.324;2023-04-06T05:29:42;23;23;
71858;PMS5003;59713;50.866;4.324;2023-04-06T05:30:42;29;24;
71858;PMS5003;59713;50.866;4.324;2023-04-06T05:31:42;29;24;
71858;PMS5003;59713;50.866;4.324;2023-04-06T05:32:42;29;24;
71858;PMS5003;59713;50.866;4.324;2023-04-06T05:33:43;42;33;
71858;PMS5003;59713;50.866;4.324;2023-04-06T05:34:42;42;33;
71858;PMS5003;59713;50.866;4.324;2023-04-06T05:35:42;42;33;
71858;PMS5003;59713;50.866;4.324;2023-04-06T05:35:42;42;33;
71858;PMS5003;59713;50.866;4.324;2023-04-06T05:36:42;32;30;
71858;PMS5003;59713;50.866;4.324;2023-04-06T05:37:42;32;30;
71858;PMS5003;59713;50.866;4.324;2023-04-06T05:38:42;32;30;
71858;PMS5003;59713;50.866;4.324;2023-04-06T05:39:42;32;30;
71858;PMS5003;59713;50.866;4.324;2023-04-06T05:40:42;32;30;
71858;PMS5003;59713;50.866;4.324;2023-04-06T05:41:42;32;30;
71858;PMS5003;59713;50.866;4.324;2023-04-06T05:42:42;34;30;
71858;PMS5003;59713;50.866;4.324;2023-04-06T05:43:42;34;30;
71858;PMS5003;59713;50.866;4.324;2023-04-06T05:44:42;34;30;
71858;PMS5003;59713;50.866;4.324;2023-04-06T05:44:42;34;30;
71858;PMS5003;59713;50.866;4.324;2023-04-06T05:45:43;36;33;
71858;PMS5003;59713;50.866;4.324;2023-04-06T05:46:42;36;33;
71858;PMS5003;59713;50.866;4.324;2023-04-06T05:47:42;36;33;
71858;PMS5003;59713;50.866;4.324;2023-04-06T05:48:42;45;35;
71858;PMS5003;59713;50.866;4.324;2023-04-06T05:49:42;45;35;
71858;PMS5003;59713;50.866;4.324;2023-04-06T05:50:42;45;35;
71858;PMS5003;59713;50.866;4.324;2023-04-06T05:51:42;37;32;
71858;PMS5003;59713;50.866;4.324;2023-04-06T05:52:42;37;32;
71858;PMS5003;59713;50.866;4.324;2023-04-06T05:53:42;37;32;
71858;PMS5003;59713;50.866;4.324;2023-04-06T05:54:42;38;31;
71858;PMS5003;59713;50.866;4.324;2023-04-06T05:54:42;38;31;
71858;PMS5003;59713;50.866;4.324;2023-04-06T05:55:42;38;31;
71858;PMS5003;59713;50.866;4.324;2023-04-06T05:56:42;38;31;
71858;PMS5003;59713;50.866;4.324;2023-04-06T05:57:42;34;31;
71858;PMS5003;59713;50.866;4.324;2023-04-06T05:58:42;34;31;
71858;PMS5003;59713;50.866;4.324;2023-04-06T05:59:42;34;31;
71858;PMS5003;59713;50.866;4.324;2023-04-06T06:00:42;40;33;
71858;PMS5003;59713;50.866;4.324;2023-04-06T06:01:42;40;33;
71858;PMS5003;59713;50.866;4.324;2023-04-06T06:02:42;40;33;